createdAt,value
2023-02-09T00:02:24.275Z,19.87
2023-02-09T00:04:52.524Z,17.03
2023-02-09T00:07:21.250Z,18.67
2023-02-09T00:09:49.737Z,15.77
2023-02-09T00:12:35.238Z,19.50
2023-02-09T00:15:05.785Z,17.37
2023-02-09T00:17:34.322Z,16.90
2023-02-09T00:20:02.466Z,20.53
2023-02-09T00:22:30.557Z,19.80
2023-02-09T00:24:58.945Z,20.27
2023-02-09T00:27:28.707Z,21.03
2023-02-09T00:29:57.086Z,17.53
2023-02-09T00:32:27.047Z,18.73
2023-02-09T00:34:55.008Z,17.90
2023-02-09T00:37:23.418Z,18.80
2023-02-09T00:39:52.075Z,20.27
2023-02-09T00:42:20.121Z,19.87
2023-02-09T00:44:48.320Z,19.67
2023-02-09T00:47:16.679Z,20.03
2023-02-09T00:49:46.250Z,17.53
2023-02-09T00:52:14.307Z,17.97
2023-02-09T00:54:42.693Z,18.43
2023-02-09T00:57:11.105Z,13.47
2023-02-09T00:59:40.992Z,17.00
2023-02-09T01:02:09.472Z,16.50
2023-02-09T01:04:39.382Z,15.07
2023-02-09T01:07:09.518Z,16.37
2023-02-09T01:09:37.940Z,17.97
2023-02-09T01:12:06.245Z,16.47
2023-02-09T01:14:34.542Z,16.23
2023-02-09T01:17:02.947Z,17.37
2023-02-09T01:19:31.397Z,15.50
2023-02-09T01:21:59.567Z,20.63
2023-02-09T01:24:29.638Z,18.37
2023-02-09T01:26:57.797Z,18.47
2023-02-09T01:29:26.838Z,17.50
2023-02-09T01:31:55.049Z,18.60
2023-02-09T01:34:23.252Z,20.63
2023-02-09T01:36:51.604Z,19.30
2023-02-09T01:39:19.877Z,17.43
2023-02-09T01:41:49.765Z,19.90
2023-02-09T01:44:55.345Z,17.27
2023-02-09T01:47:23.371Z,18.07
2023-02-09T01:49:52.533Z,18.33
2023-02-09T01:52:24.767Z,20.83
2023-02-09T01:54:57.785Z,19.10
2023-02-09T01:57:32.706Z,22.07
2023-02-09T02:00:06.911Z,20.07
2023-02-09T02:02:36.409Z,20.03
2023-02-09T02:05:06.096Z,18.10
2023-02-09T02:07:40.686Z,21.03
2023-02-09T02:10:10.363Z,21.47
2023-02-09T02:12:41.730Z,23.00
2023-02-09T02:15:12.546Z,21.90
2023-02-09T02:18:08.745Z,20.67
2023-02-09T02:21:04.424Z,21.07
2023-02-09T02:23:43.381Z,18.97
2023-02-09T02:26:52.602Z,18.80
2023-02-09T02:30:07.223Z,18.37
2023-02-09T02:32:50.026Z,18.50
2023-02-09T02:35:26.720Z,19.87
2023-02-09T02:38:04.697Z,20.53
2023-02-09T02:40:42.618Z,20.87
2023-02-09T02:43:23.201Z,20.70
2023-02-09T02:46:00.362Z,16.77
2023-02-09T02:48:37.284Z,18.80
2023-02-09T02:51:09.338Z,21.93
2023-02-09T02:53:39.163Z,20.80
2023-02-09T02:56:12.177Z,19.17
2023-02-09T02:58:42.151Z,19.97
2023-02-09T03:01:14.626Z,20.07
2023-02-09T03:03:47.212Z,21.03
2023-02-09T03:06:16.946Z,21.77
2023-02-09T03:08:50.775Z,19.20
2023-02-09T03:11:20.959Z,19.67
2023-02-09T03:14:06.512Z,18.13
2023-02-09T03:16:41.569Z,20.63
2023-02-09T03:19:20.606Z,19.97
2023-02-09T03:21:54.621Z,20.73
2023-02-09T03:24:33.568Z,20.40
2023-02-09T03:27:08.791Z,21.47
2023-02-09T03:29:39.523Z,22.53
2023-02-09T03:32:08.503Z,20.17
2023-02-09T03:34:38.390Z,15.37
2023-02-09T03:37:06.680Z,19.83
2023-02-09T03:39:36.135Z,21.93
2023-02-09T03:42:04.887Z,20.90
2023-02-09T03:44:33.272Z,17.63
2023-02-09T03:47:03.646Z,18.23
2023-02-09T03:49:34.676Z,20.20
2023-02-09T03:52:06.149Z,19.23
2023-02-09T03:54:35.618Z,19.77
2023-02-09T03:57:04.754Z,21.10
2023-02-09T03:59:36.866Z,20.67
2023-02-09T04:02:07.002Z,24.03
2023-02-09T04:04:35.321Z,21.30
2023-02-09T04:07:07.737Z,20.30
2023-02-09T04:09:38.120Z,21.90
2023-02-09T04:12:07.104Z,27.27
2023-02-09T04:14:35.305Z,26.30
2023-02-09T04:17:04.042Z,21.40
2023-02-09T04:19:33.499Z,21.70
2023-02-09T04:22:05.120Z,23.80
2023-02-09T04:24:33.195Z,19.93
2023-02-09T04:27:01.604Z,20.50
2023-02-09T04:29:30.064Z,19.83
2023-02-09T04:31:58.474Z,21.63
2023-02-09T04:34:27.262Z,21.47
2023-02-09T04:36:55.488Z,21.60
2023-02-09T04:39:25.204Z,22.50
2023-02-09T04:41:53.737Z,20.27
2023-02-09T04:44:22.639Z,18.80
2023-02-09T04:46:51.020Z,18.73
2023-02-09T04:49:19.215Z,19.13
2023-02-09T04:51:47.433Z,20.17
2023-02-09T04:54:15.645Z,26.37
2023-02-09T04:56:45.605Z,27.57
2023-02-09T04:59:32.844Z,26.33
2023-02-09T05:02:00.925Z,22.33
2023-02-09T05:04:29.096Z,18.73
2023-02-09T05:06:57.366Z,21.97
2023-02-09T05:09:25.468Z,23.20
2023-02-09T05:11:55.173Z,24.73
2023-02-09T05:14:23.412Z,24.70
2023-02-09T05:16:51.800Z,20.63
2023-02-09T05:19:20.026Z,24.67
2023-02-09T05:21:48.189Z,24.23
2023-02-09T05:24:16.448Z,19.17
2023-02-09T05:26:44.591Z,21.60
2023-02-09T05:29:14.603Z,20.53
2023-02-09T05:31:43.265Z,21.80
2023-02-09T05:34:11.478Z,26.30
2023-02-09T05:36:39.684Z,30.37
2023-02-09T05:39:07.915Z,37.83
2023-02-09T05:41:53.097Z,37.23
2023-02-09T05:44:22.984Z,40.50
2023-02-09T05:46:51.110Z,35.53
2023-02-09T05:49:19.372Z,28.67
2023-02-09T05:51:49.172Z,29.80
2023-02-09T05:54:19.280Z,28.40
2023-02-09T05:56:48.117Z,32.73
2023-02-09T05:59:16.537Z,33.60
2023-02-09T06:01:46.002Z,26.27
2023-02-09T06:04:15.400Z,26.53
2023-02-09T06:06:43.444Z,25.70
2023-02-09T06:09:11.943Z,24.37
2023-02-09T06:11:40.577Z,24.57
2023-02-09T06:14:09.706Z,22.20
2023-02-09T06:16:42.948Z,22.67
2023-02-09T06:19:14.021Z,26.20
2023-02-09T06:21:43.746Z,25.87
2023-02-09T06:24:12.402Z,20.73
2023-02-09T06:26:43.713Z,21.90
2023-02-09T06:29:12.265Z,22.80
2023-02-09T06:31:42.276Z,23.53
2023-02-09T06:34:12.993Z,25.37
2023-02-09T06:36:41.200Z,22.93
2023-02-09T06:39:09.995Z,22.30
2023-02-09T06:41:41.145Z,21.67
2023-02-09T06:44:11.592Z,22.63
2023-02-09T06:46:40.507Z,22.70
2023-02-09T06:49:08.953Z,21.90
2023-02-09T06:51:39.225Z,20.13
2023-02-09T06:54:07.876Z,23.30
2023-02-09T06:56:37.265Z,21.47
2023-02-09T06:59:05.322Z,23.80
2023-02-09T07:01:33.606Z,22.50
2023-02-09T07:04:02.154Z,25.87
2023-02-09T07:06:30.678Z,25.33
2023-02-09T07:09:00.549Z,21.40
2023-02-09T07:11:29.094Z,21.87
2023-02-09T07:13:57.490Z,24.90
2023-02-09T07:16:25.905Z,21.10
2023-02-09T07:18:55.288Z,25.23
2023-02-09T07:21:23.971Z,23.73
2023-02-09T07:23:53.405Z,28.70
2023-02-09T07:26:23.118Z,24.10
2023-02-09T07:28:51.498Z,21.67
2023-02-09T07:31:19.923Z,23.87
2023-02-09T07:33:49.345Z,26.73
2023-02-09T07:36:19.680Z,25.43
2023-02-09T07:38:48.651Z,21.80
2023-02-09T07:41:19.387Z,25.50
2023-02-09T07:43:49.431Z,25.40
2023-02-09T07:46:19.461Z,22.63
2023-02-09T07:48:47.792Z,19.87
2023-02-09T07:51:16.791Z,23.47
2023-02-09T07:53:44.935Z,20.63
2023-02-09T07:56:13.347Z,24.33
2023-02-09T07:58:41.721Z,21.27
2023-02-09T08:01:13.987Z,22.47
2023-02-09T08:03:47.247Z,20.90
2023-02-09T08:06:21.797Z,23.43
2023-02-09T08:08:52.392Z,23.80
2023-02-09T08:11:23.782Z,23.50
2023-02-09T08:13:54.811Z,22.27
2023-02-09T08:16:29.087Z,19.37
2023-02-09T08:19:01.935Z,21.27
2023-02-09T08:21:32.672Z,21.27
2023-02-09T08:24:01.994Z,20.07
2023-02-09T08:26:31.539Z,19.90
2023-02-09T08:29:01.026Z,18.63
2023-02-09T08:31:30.864Z,22.03
2023-02-09T08:33:59.352Z,20.10
2023-02-09T08:36:28.205Z,18.40
2023-02-09T08:38:56.609Z,21.47
2023-02-09T08:41:24.898Z,21.70
2023-02-09T08:43:53.454Z,22.10
2023-02-09T08:46:22.113Z,20.50
2023-02-09T08:48:54.148Z,19.20
2023-02-09T08:51:22.519Z,21.80
2023-02-09T08:53:53.024Z,20.17
2023-02-09T08:56:23.688Z,19.67
2023-02-09T08:58:52.070Z,21.67
2023-02-09T09:01:21.661Z,18.87
2023-02-09T09:03:51.707Z,20.70
2023-02-09T09:06:20.217Z,20.73
2023-02-09T09:08:48.529Z,20.83
2023-02-09T09:11:17.491Z,19.60
2023-02-09T09:13:45.562Z,19.97
2023-02-09T09:16:17.681Z,19.53
2023-02-09T09:18:46.353Z,18.83
2023-02-09T09:21:18.083Z,21.87
2023-02-09T09:23:47.610Z,19.80
2023-02-09T09:26:16.475Z,20.93
2023-02-09T09:28:45.018Z,20.37
2023-02-09T09:31:17.437Z,19.27
2023-02-09T09:33:46.758Z,18.07
2023-02-09T09:36:17.077Z,22.33
2023-02-09T09:38:45.758Z,19.53
2023-02-09T09:41:24.633Z,21.20
2023-02-09T09:43:53.857Z,20.97
2023-02-09T09:46:34.395Z,20.17
2023-02-09T09:49:02.878Z,20.30
2023-02-09T09:51:38.454Z,21.80
2023-02-09T09:54:10.252Z,21.50
2023-02-09T09:56:41.270Z,19.57
2023-02-09T09:59:18.330Z,20.53
2023-02-09T10:01:50.069Z,22.23
2023-02-09T10:04:21.198Z,18.97
2023-02-09T10:06:58.651Z,19.10
2023-02-09T10:09:35.009Z,21.70
2023-02-09T10:12:24.529Z,19.07
2023-02-09T10:14:52.972Z,21.30
2023-02-09T10:17:21.061Z,18.67
2023-02-09T10:20:01.774Z,21.93
2023-02-09T10:22:32.217Z,20.07
2023-02-09T10:25:01.052Z,21.17
2023-02-09T10:27:31.438Z,20.43
2023-02-09T10:30:19.275Z,21.07
2023-02-09T10:32:48.129Z,21.47
2023-02-09T10:35:43.221Z,22.03
2023-02-09T10:38:18.354Z,22.77
2023-02-09T10:40:47.997Z,20.57
2023-02-09T10:43:25.467Z,20.20
2023-02-09T10:45:56.056Z,22.67
2023-02-09T10:48:25.773Z,19.70
2023-02-09T10:50:57.345Z,19.00
2023-02-09T10:53:29.825Z,19.80
2023-02-09T10:56:04.201Z,20.83
2023-02-09T10:58:34.249Z,22.23
2023-02-09T11:01:17.590Z,19.77
2023-02-09T11:04:01.546Z,22.27
2023-02-09T11:06:35.165Z,21.93
2023-02-09T11:09:08.983Z,21.67
2023-02-09T11:11:39.656Z,28.40
2023-02-09T11:14:12.907Z,24.90
2023-02-09T11:17:16.402Z,39.63
2023-02-09T11:20:21.609Z,38.63
2023-02-09T11:23:04.192Z,27.90
2023-02-09T11:25:39.389Z,51.30
2023-02-09T11:28:33.186Z,27.93
2023-02-09T11:31:19.757Z,19.27
2023-02-09T11:33:57.189Z,20.00
2023-02-09T11:36:39.900Z,21.53
2023-02-09T11:39:15.758Z,20.23
2023-02-09T11:42:08.197Z,18.73
2023-02-09T11:44:46.112Z,28.17
2023-02-09T11:47:19.490Z,22.40
2023-02-09T11:49:51.273Z,17.83
2023-02-09T11:52:25.747Z,18.57
2023-02-09T11:55:01.742Z,22.97
2023-02-09T11:57:37.658Z,22.67
2023-02-09T12:00:08.624Z,21.37
2023-02-09T12:02:51.742Z,19.33
2023-02-09T12:05:22.171Z,19.20
2023-02-09T12:08:18.089Z,21.70
2023-02-09T12:10:57.345Z,20.20
2023-02-09T12:13:39.596Z,19.70
2023-02-09T12:16:14.921Z,19.83
2023-02-09T12:18:49.467Z,21.73
2023-02-09T12:21:29.542Z,19.63
2023-02-09T12:24:33.096Z,19.87
2023-02-09T12:27:01.286Z,26.60
2023-02-09T12:29:39.929Z,19.50
2023-02-09T12:32:30.935Z,23.37
2023-02-09T12:35:29.747Z,20.63
2023-02-09T12:38:18.355Z,23.17
2023-02-09T12:41:03.692Z,21.13
2023-02-09T12:43:32.648Z,22.17
2023-02-09T12:46:48.976Z,23.03
2023-02-09T12:49:22.710Z,20.90
2023-02-09T12:52:14.854Z,19.50
2023-02-09T12:54:53.238Z,21.90
2023-02-09T12:57:55.396Z,20.63
2023-02-09T13:00:56.036Z,20.37
2023-02-09T13:03:28.031Z,21.73
2023-02-09T13:06:01.208Z,19.40
2023-02-09T13:08:35.223Z,22.97
2023-02-09T13:11:07.880Z,22.10
2023-02-09T13:13:46.874Z,21.67
2023-02-09T13:16:45.292Z,21.70
2023-02-09T13:19:36.423Z,21.20
2023-02-09T13:22:28.594Z,22.80
2023-02-09T13:25:01.971Z,20.63
2023-02-09T13:27:32.538Z,23.20
2023-02-09T13:30:00.921Z,20.37
2023-02-09T13:32:38.313Z,20.27
2023-02-09T13:35:17.089Z,22.07
2023-02-09T13:37:50.592Z,21.73
2023-02-09T13:40:26.591Z,24.77
2023-02-09T13:43:01.090Z,25.47
2023-02-09T13:45:29.872Z,24.97
2023-02-09T13:48:00.823Z,23.80
2023-02-09T13:50:51.322Z,23.30
2023-02-09T13:53:24.350Z,25.27
2023-02-09T13:55:55.274Z,24.67
2023-02-09T13:58:29.804Z,25.10
2023-02-09T14:01:01.119Z,26.23
2023-02-09T14:03:33.666Z,28.00
2023-02-09T14:06:12.101Z,29.37
2023-02-09T14:08:43.740Z,26.43
2023-02-09T14:11:41.446Z,27.17
2023-02-09T14:14:14.075Z,27.10
2023-02-09T14:16:53.542Z,28.63
2023-02-09T14:19:27.946Z,24.93
2023-02-09T14:21:59.369Z,25.03
2023-02-09T14:24:29.346Z,23.83
2023-02-09T14:27:23.350Z,23.47
2023-02-09T14:29:52.673Z,26.00
2023-02-09T14:32:33.257Z,23.80
2023-02-09T14:35:18.337Z,28.23
2023-02-09T14:37:50.067Z,27.13
2023-02-09T14:40:24.880Z,27.57
2023-02-09T14:43:01.807Z,25.03
2023-02-09T14:45:41.290Z,27.60
2023-02-09T14:48:21.434Z,26.87
2023-02-09T14:50:51.101Z,28.83
2023-02-09T14:53:22.745Z,28.53
2023-02-09T14:55:52.322Z,27.97
2023-02-09T14:58:23.370Z,29.60
2023-02-09T15:00:53.084Z,29.03
2023-02-09T15:03:21.532Z,27.00
2023-02-09T15:05:51.727Z,32.53
2023-02-09T15:08:27.574Z,31.20
2023-02-09T15:10:59.509Z,29.27
2023-02-09T15:13:33.175Z,27.63
2023-02-09T15:16:01.380Z,30.70
2023-02-09T15:18:29.708Z,29.27
2023-02-09T15:20:59.723Z,31.40
2023-02-09T15:23:30.576Z,30.87
2023-02-09T15:26:00.339Z,28.10
2023-02-09T15:28:30.382Z,30.90
2023-02-09T15:30:59.832Z,32.80
2023-02-09T15:33:31.355Z,29.20
2023-02-09T15:36:00.453Z,29.13
2023-02-09T15:38:30.309Z,32.63
2023-02-09T15:41:17.017Z,33.33
2023-02-09T15:44:03.716Z,33.13
2023-02-09T15:46:49.721Z,33.37
2023-02-09T15:49:18.389Z,29.30
2023-02-09T15:51:47.048Z,34.20
2023-02-09T15:54:22.258Z,32.93
2023-02-09T15:56:51.240Z,33.67
2023-02-09T15:59:21.275Z,29.60
2023-02-09T16:01:50.431Z,33.27
2023-02-09T16:04:21.368Z,32.67
2023-02-09T16:06:53.906Z,29.93
2023-02-09T16:09:26.901Z,29.10
2023-02-09T16:11:55.583Z,28.83
2023-02-09T16:14:25.817Z,33.10
2023-02-09T16:16:54.216Z,31.10
2023-02-09T16:19:24.083Z,36.67
2023-02-09T16:21:56.640Z,34.13
2023-02-09T16:24:32.382Z,35.40
2023-02-09T16:27:03.136Z,32.27
2023-02-09T16:29:31.281Z,31.93
2023-02-09T16:31:59.709Z,33.47
2023-02-09T16:34:28.122Z,33.00
2023-02-09T16:36:56.713Z,34.80
2023-02-09T16:39:26.709Z,34.87
2023-02-09T16:41:55.481Z,31.70
2023-02-09T16:44:28.528Z,30.47
2023-02-09T16:47:00.236Z,30.97
2023-02-09T16:49:35.885Z,35.23
2023-02-09T16:52:07.552Z,33.40
2023-02-09T16:54:42.900Z,41.03
2023-02-09T16:57:14.709Z,35.67
2023-02-09T16:59:42.947Z,38.10
2023-02-09T17:02:39.054Z,39.57
2023-02-09T17:05:18.077Z,32.63
2023-02-09T17:07:54.496Z,34.73
2023-02-09T17:10:28.205Z,31.80
2023-02-09T17:12:56.821Z,32.97
2023-02-09T17:15:31.019Z,30.90
2023-02-09T17:18:03.053Z,31.63
2023-02-09T17:20:36.941Z,33.77
2023-02-09T17:23:06.172Z,35.20
2023-02-09T17:25:36.651Z,32.97
2023-02-09T17:28:05.787Z,33.40
2023-02-09T17:30:34.828Z,32.73
2023-02-09T17:33:06.446Z,33.70
2023-02-09T17:36:17.520Z,35.87
2023-02-09T17:38:29.695Z,47.50
2023-02-09T17:41:03.418Z,50.10
2023-02-09T17:43:33.260Z,37.77
2023-02-09T17:46:01.743Z,41.63
2023-02-09T17:48:30.337Z,40.87
2023-02-09T17:51:00.406Z,36.67
2023-02-09T17:53:33.241Z,36.50
2023-02-09T17:56:03.100Z,38.00
2023-02-09T17:58:31.514Z,43.23
2023-02-09T18:01:00.020Z,40.00
2023-02-09T18:03:28.526Z,37.50
2023-02-09T18:06:01.824Z,39.57
2023-02-09T18:08:31.135Z,42.03
2023-02-09T18:10:59.556Z,38.10
2023-02-09T18:13:29.561Z,38.27
2023-02-09T18:15:58.066Z,37.63
2023-02-09T18:18:26.390Z,36.20
2023-02-09T18:20:54.715Z,34.63
2023-02-09T18:23:23.658Z,35.57
2023-02-09T18:25:52.429Z,37.37
2023-02-09T18:28:21.094Z,33.77
2023-02-09T18:30:52.631Z,33.83
2023-02-09T18:33:21.042Z,42.17
2023-02-09T18:35:49.582Z,36.23
2023-02-09T18:38:18.320Z,35.77
2023-02-09T18:40:49.061Z,38.90
2023-02-09T18:43:17.806Z,40.00
2023-02-09T18:45:46.439Z,39.77
2023-02-09T18:48:17.674Z,38.00
2023-02-09T18:50:46.247Z,37.73
2023-02-09T18:53:16.306Z,40.83
2023-02-09T18:55:44.546Z,40.77
2023-02-09T18:58:14.300Z,40.50
2023-02-09T19:00:43.020Z,45.53
2023-02-09T19:03:13.466Z,46.33
2023-02-09T19:05:43.387Z,44.50
2023-02-09T19:08:11.988Z,39.20
2023-02-09T19:10:41.995Z,44.80
2023-02-09T19:13:10.535Z,42.90
2023-02-09T19:15:40.550Z,43.03
2023-02-09T19:18:08.776Z,44.63
2023-02-09T19:20:37.486Z,46.80
2023-02-09T19:23:09.543Z,43.00
2023-02-09T19:25:38.022Z,41.23
2023-02-09T19:28:06.626Z,42.03
2023-02-09T19:30:34.964Z,35.47
2023-02-09T19:33:03.745Z,44.40
2023-02-09T19:35:32.117Z,38.27
2023-02-09T19:38:02.875Z,40.73
2023-02-09T19:40:36.570Z,40.80
2023-02-09T19:43:06.138Z,37.03
2023-02-09T19:45:37.769Z,40.07
2023-02-09T19:48:07.870Z,38.97
2023-02-09T19:50:37.857Z,39.60
2023-02-09T19:53:06.825Z,37.73
2023-02-09T19:55:36.494Z,41.37
2023-02-09T19:58:05.040Z,40.63
2023-02-09T20:00:33.736Z,40.23
2023-02-09T20:03:02.526Z,38.27
2023-02-09T20:05:30.768Z,45.23
2023-02-09T20:08:00.266Z,40.00
2023-02-09T20:10:28.733Z,38.97
2023-02-09T20:12:58.802Z,43.10
2023-02-09T20:15:28.151Z,54.30
2023-02-09T20:17:58.334Z,42.33
2023-02-09T20:20:27.070Z,49.00
2023-02-09T20:22:55.836Z,46.03
2023-02-09T20:25:25.229Z,52.87
2023-02-09T20:27:54.491Z,55.30
2023-02-09T20:30:24.808Z,56.13
2023-02-09T20:32:53.068Z,51.90
2023-02-09T20:35:23.081Z,53.37
2023-02-09T20:37:52.970Z,53.20
2023-02-09T20:40:24.269Z,51.50
2023-02-09T20:43:09.519Z,54.60
2023-02-09T20:45:56.668Z,49.67
2023-02-09T20:48:26.482Z,47.40
2023-02-09T20:50:54.588Z,46.73
2023-02-09T20:53:23.054Z,47.97
2023-02-09T20:55:51.190Z,60.90
2023-02-09T20:58:20.301Z,74.47
2023-02-09T21:00:51.388Z,58.30
2023-02-09T21:03:20.003Z,63.33
2023-02-09T21:05:48.442Z,51.53
2023-02-09T21:08:16.865Z,46.77
2023-02-09T21:10:45.434Z,39.90
2023-02-09T21:13:13.622Z,43.20
2023-02-09T21:15:43.304Z,44.60
2023-02-09T21:18:14.354Z,42.47
2023-02-09T21:20:43.248Z,48.17
2023-02-09T21:23:11.728Z,49.03
2023-02-09T21:25:40.674Z,53.80
2023-02-09T21:28:08.790Z,52.60
2023-02-09T21:30:37.552Z,52.60
2023-02-09T21:33:05.771Z,53.53
2023-02-09T21:35:36.139Z,42.73
2023-02-09T21:38:05.489Z,39.40
2023-02-09T21:40:33.738Z,41.43
2023-02-09T21:43:02.102Z,39.00
2023-02-09T21:45:30.760Z,37.13
2023-02-09T21:48:01.305Z,43.13
2023-02-09T21:50:31.364Z,41.47
2023-02-09T21:53:02.194Z,41.90
2023-02-09T21:55:31.376Z,38.37
2023-02-09T21:58:00.296Z,41.73
2023-02-09T22:00:30.758Z,40.87
2023-02-09T22:02:58.942Z,43.43
2023-02-09T22:05:27.271Z,39.97
2023-02-09T22:07:56.881Z,41.87
2023-02-09T22:10:26.839Z,40.17
2023-02-09T22:12:55.491Z,39.33
2023-02-09T22:15:23.807Z,39.30
2023-02-09T22:17:52.053Z,36.90
2023-02-09T22:20:20.651Z,46.13
2023-02-09T22:22:49.680Z,44.27
2023-02-09T22:25:33.720Z,41.67
2023-02-09T22:28:08.876Z,41.03
2023-02-09T22:30:45.492Z,40.37
2023-02-09T22:33:16.469Z,39.30
2023-02-09T22:35:49.550Z,37.53
2023-02-09T22:38:29.972Z,46.77
2023-02-09T22:41:06.210Z,41.30
2023-02-09T22:43:36.759Z,41.50
2023-02-09T22:46:08.873Z,46.73
2023-02-09T22:48:38.685Z,43.00
2023-02-09T22:51:08.136Z,42.27
2023-02-09T22:53:37.284Z,42.73
2023-02-09T22:56:06.195Z,41.53
2023-02-09T22:58:37.079Z,43.80
2023-02-09T23:01:06.558Z,45.50
2023-02-09T23:03:36.532Z,41.83
2023-02-09T23:06:07.151Z,43.37
2023-02-09T23:08:36.014Z,40.97
2023-02-09T23:11:05.571Z,41.07
2023-02-09T23:13:35.906Z,37.53
2023-02-09T23:16:15.303Z,38.07
2023-02-09T23:18:48.994Z,43.47
2023-02-09T23:21:20.211Z,41.07
2023-02-09T23:23:55.699Z,41.90
2023-02-09T23:26:27.422Z,41.10
2023-02-09T23:29:00.163Z,38.30
2023-02-09T23:31:32.642Z,38.90
2023-02-09T23:34:02.787Z,38.33
2023-02-09T23:36:33.942Z,35.63
2023-02-09T23:39:06.461Z,38.83
2023-02-09T23:41:44.770Z,37.33
2023-02-09T23:44:15.260Z,37.50
2023-02-09T23:46:44.866Z,41.20
2023-02-09T23:49:16.124Z,41.00
2023-02-09T23:51:47.189Z,43.47
2023-02-09T23:54:15.736Z,43.77
2023-02-09T23:56:46.228Z,48.30
2023-02-09T23:59:17.554Z,46.30
